createdAt,value
2019-02-05T00:01:18.611Z,6.70
2019-02-05T00:03:47.414Z,6.70
2019-02-05T00:06:19.385Z,6.70
2019-02-05T00:08:48.205Z,6.70
2019-02-05T00:11:16.926Z,6.70
2019-02-05T00:13:45.697Z,6.70
2019-02-05T00:16:14.446Z,6.70
2019-02-05T00:18:43.181Z,6.70
2019-02-05T00:21:12.497Z,6.70
2019-02-05T00:23:41.232Z,6.70
2019-02-05T00:26:10.209Z,6.70
2019-02-05T00:28:38.941Z,6.70
2019-02-05T00:31:07.844Z,6.70
2019-02-05T00:33:36.574Z,6.80
2019-02-05T00:36:05.612Z,6.80
2019-02-05T00:38:34.432Z,6.80
2019-02-05T00:41:03.717Z,6.80
2019-02-05T00:43:32.505Z,6.80
2019-02-05T00:46:01.293Z,6.80
2019-02-05T00:48:30.014Z,6.80
2019-02-05T00:50:59.504Z,6.80
2019-02-05T00:53:28.369Z,6.80
2019-02-05T00:55:57.257Z,6.80
2019-02-05T00:58:26.056Z,6.80
2019-02-05T01:00:54.793Z,6.80
2019-02-05T01:03:23.673Z,6.80
2019-02-05T01:05:52.433Z,6.80
2019-02-05T01:08:21.678Z,6.80
2019-02-05T01:10:50.513Z,6.80
2019-02-05T01:13:19.274Z,6.80
2019-02-05T01:15:48.105Z,6.80
2019-02-05T01:18:16.862Z,6.90
2019-02-05T01:20:45.653Z,6.90
2019-02-05T01:23:14.870Z,6.90
2019-02-05T01:25:43.736Z,6.90
2019-02-05T01:28:12.489Z,6.90
2019-02-05T01:30:41.237Z,6.90
2019-02-05T01:33:09.969Z,6.90
2019-02-05T01:35:38.810Z,6.90
2019-02-05T01:38:07.962Z,6.90
2019-02-05T01:40:36.741Z,6.90
2019-02-05T01:43:05.593Z,6.90
2019-02-05T01:45:34.458Z,6.90
2019-02-05T01:48:03.349Z,6.90
2019-02-05T01:50:32.137Z,6.90
2019-02-05T01:53:01.323Z,6.90
2019-02-05T01:55:30.155Z,6.90
2019-02-05T01:57:59.057Z,6.90
2019-02-05T02:00:30.923Z,6.90
2019-02-05T02:02:59.957Z,7.00
2019-02-05T02:05:28.869Z,7.00
2019-02-05T02:07:58.225Z,7.00
2019-02-05T02:10:28.546Z,7.00
2019-02-05T02:12:57.401Z,7.00
2019-02-05T02:15:26.213Z,7.00
2019-02-05T02:17:55.033Z,7.00
2019-02-05T02:20:24.043Z,7.00
2019-02-05T02:22:52.864Z,7.00
2019-02-05T02:25:21.636Z,7.00
2019-02-05T02:27:50.897Z,7.00
2019-02-05T02:30:25.355Z,7.00
2019-02-05T02:32:54.066Z,7.00
2019-02-05T02:35:22.965Z,7.00
2019-02-05T02:37:52.128Z,7.00
2019-02-05T02:40:20.974Z,7.00
2019-02-05T02:42:49.697Z,7.00
2019-02-05T02:45:18.620Z,7.00
2019-02-05T02:47:47.493Z,7.00
2019-02-05T02:50:16.510Z,7.00
2019-02-05T02:52:45.745Z,7.00
2019-02-05T02:55:17.433Z,7.00
2019-02-05T02:57:46.277Z,7.10
2019-02-05T03:00:17.148Z,7.10
2019-02-05T03:02:46.115Z,7.10
2019-02-05T03:05:17.527Z,7.10
2019-02-05T03:07:46.723Z,7.10
2019-02-05T03:10:18.511Z,7.10
2019-02-05T03:12:47.459Z,7.10
2019-02-05T03:15:16.341Z,7.10
2019-02-05T03:17:45.118Z,7.10
2019-02-05T03:20:14.445Z,7.10
2019-02-05T03:22:45.278Z,7.10
2019-02-05T03:25:15.363Z,7.10
2019-02-05T03:27:44.296Z,7.10
2019-02-05T03:30:16.043Z,7.10
2019-02-05T03:32:44.855Z,7.10
2019-02-05T03:35:14.524Z,7.10
2019-02-05T03:37:43.313Z,7.10
2019-02-05T03:40:35.401Z,7.10
2019-02-05T03:43:04.198Z,7.10
2019-02-05T03:45:33.565Z,7.10
2019-02-05T03:48:02.709Z,7.10
2019-02-05T03:50:33.718Z,7.10
2019-02-05T03:53:05.046Z,7.10
2019-02-05T03:56:15.047Z,7.10
2019-02-05T03:59:18.958Z,7.10
2019-02-05T04:02:31.808Z,7.10
2019-02-05T04:05:35.649Z,7.10
2019-02-05T04:08:45.875Z,7.10
2019-02-05T04:11:53.837Z,7.10
2019-02-05T04:14:54.522Z,7.10
2019-02-05T04:17:53.580Z,7.10
2019-02-05T04:20:55.964Z,7.10
2019-02-05T04:24:36.331Z,7.10
2019-02-05T04:27:25.870Z,7.10
2019-02-05T04:30:51.461Z,7.10
2019-02-05T04:33:43.793Z,7.10
2019-02-05T04:36:57.810Z,7.10
2019-02-05T04:40:04.259Z,7.10
2019-02-05T04:42:44.538Z,7.10
2019-02-05T04:45:40.105Z,7.10
2019-02-05T04:48:44.879Z,7.10
2019-02-05T04:52:10.197Z,7.10
2019-02-05T04:55:19.983Z,7.10
2019-02-05T04:58:06.174Z,7.10
2019-02-05T05:00:43.006Z,7.10
2019-02-05T05:03:51.375Z,7.10
2019-02-05T05:06:57.426Z,7.10
2019-02-05T05:09:55.611Z,7.10
2019-02-05T05:12:25.568Z,7.10
2019-02-05T05:14:55.557Z,7.10
2019-02-05T05:17:24.408Z,7.10
2019-02-05T05:19:53.281Z,7.10
2019-02-05T05:22:22.151Z,7.20
2019-02-05T05:24:51.194Z,7.20
2019-02-05T05:27:21.507Z,7.20
2019-02-05T05:29:50.843Z,7.20
2019-02-05T05:32:20.249Z,7.20
2019-02-05T05:34:49.027Z,7.20
2019-02-05T05:37:16.445Z,7.20
2019-02-05T05:39:45.166Z,7.20
2019-02-05T05:42:13.944Z,7.30
2019-02-05T05:44:43.126Z,7.30
2019-02-05T05:47:11.916Z,7.30
2019-02-05T05:49:40.630Z,7.30
2019-02-05T05:52:09.413Z,7.30
2019-02-05T05:54:38.245Z,7.30
2019-02-05T05:57:06.989Z,7.30
2019-02-05T05:59:35.735Z,7.30
2019-02-05T06:02:05.311Z,7.30
2019-02-05T06:04:34.081Z,7.30
2019-02-05T06:07:02.813Z,7.30
2019-02-05T06:09:31.667Z,7.30
2019-02-05T06:12:00.621Z,7.30
2019-02-05T06:14:29.541Z,7.30
2019-02-05T06:16:58.299Z,7.30
2019-02-05T06:19:27.413Z,7.30
2019-02-05T06:21:56.291Z,7.40
2019-02-05T06:24:25.258Z,7.30
2019-02-05T06:26:54.033Z,7.40
2019-02-05T06:29:22.865Z,7.40
2019-02-05T06:31:51.810Z,7.40
2019-02-05T06:34:20.871Z,7.40
2019-02-05T06:36:49.679Z,7.40
2019-02-05T06:39:18.483Z,7.40
2019-02-05T06:41:47.203Z,7.40
2019-02-05T06:44:15.915Z,7.40
2019-02-05T06:46:44.849Z,7.40
2019-02-05T06:49:13.713Z,7.40
2019-02-05T06:51:42.729Z,7.40
2019-02-05T06:54:11.639Z,7.40
2019-02-05T06:56:42.389Z,7.40
2019-02-05T06:59:10.852Z,7.40
2019-02-05T07:01:39.665Z,7.40
2019-02-05T07:04:08.542Z,7.40
2019-02-05T07:06:37.369Z,7.40
2019-02-05T07:09:09.665Z,7.40
2019-02-05T07:11:38.559Z,7.40
2019-02-05T07:14:07.704Z,7.40
2019-02-05T07:16:36.555Z,7.40
2019-02-05T07:19:05.617Z,7.40
2019-02-05T07:21:34.565Z,7.30
2019-02-05T07:24:03.923Z,7.40
2019-02-05T07:26:32.685Z,7.40
2019-02-05T07:29:02.117Z,7.40
2019-02-05T07:31:31.167Z,7.40
2019-02-05T07:34:00.132Z,7.40
2019-02-05T07:36:29.040Z,7.40
2019-02-05T07:38:57.943Z,7.40
2019-02-05T07:41:27.056Z,7.40
2019-02-05T07:43:55.903Z,7.40
2019-02-05T07:46:24.792Z,7.40
2019-02-05T07:48:53.679Z,7.40
2019-02-05T07:51:22.569Z,7.40
2019-02-05T07:53:51.483Z,7.40
2019-02-05T07:56:20.319Z,7.40
2019-02-05T07:58:49.236Z,7.50
2019-02-05T08:01:18.355Z,7.50
2019-02-05T08:03:47.227Z,7.50
2019-02-05T08:06:16.082Z,7.50
2019-02-05T08:08:44.957Z,7.50
2019-02-05T08:11:15.335Z,7.50
2019-02-05T08:13:44.228Z,7.50
2019-02-05T08:16:13.244Z,7.50
2019-02-05T08:18:42.461Z,7.50
2019-02-05T08:21:11.440Z,7.50
2019-02-05T08:23:40.511Z,7.50
2019-02-05T08:26:09.428Z,7.50
2019-02-05T08:28:40.953Z,7.40
2019-02-05T08:31:09.105Z,7.40
2019-02-05T08:33:38.006Z,7.40
2019-02-05T08:36:07.415Z,7.40
2019-02-05T08:38:36.491Z,7.40
2019-02-05T08:41:05.415Z,7.40
2019-02-05T08:43:34.281Z,7.40
2019-02-05T08:46:03.232Z,7.40
2019-02-05T08:48:32.080Z,7.40
2019-02-05T08:51:01.024Z,7.40
2019-02-05T08:53:30.263Z,7.40
2019-02-05T08:55:59.093Z,7.50
2019-02-05T08:58:31.050Z,7.50
2019-02-05T09:00:58.631Z,7.50
2019-02-05T09:03:27.414Z,7.50
2019-02-05T09:05:56.260Z,7.50
2019-02-05T09:08:25.200Z,7.50
2019-02-05T09:10:54.435Z,7.50
2019-02-05T09:13:23.247Z,7.50
2019-02-05T09:15:52.171Z,7.60
2019-02-05T09:18:21.231Z,7.50
2019-02-05T09:20:50.103Z,7.60
2019-02-05T09:23:18.992Z,7.60
2019-02-05T09:25:47.897Z,7.60
2019-02-05T09:28:17.099Z,7.60
2019-02-05T09:30:45.868Z,7.60
2019-02-05T09:33:15.156Z,7.60
2019-02-05T09:35:44.224Z,7.60
2019-02-05T09:38:13.155Z,7.60
2019-02-05T09:40:42.067Z,7.60
2019-02-05T09:43:10.993Z,7.60
2019-02-05T09:45:40.413Z,7.60
2019-02-05T09:48:09.339Z,7.60
2019-02-05T09:50:44.795Z,7.60
2019-02-05T09:53:09.056Z,7.70
2019-02-05T09:55:38.190Z,7.60
2019-02-05T09:58:07.063Z,7.70
2019-02-05T10:00:38.323Z,7.70
2019-02-05T10:03:10.882Z,7.70
2019-02-05T10:05:39.876Z,7.70
2019-02-05T10:08:08.911Z,7.70
2019-02-05T10:10:37.883Z,7.70
2019-02-05T10:13:07.634Z,7.70
2019-02-05T10:15:38.031Z,7.70
2019-02-05T10:18:08.347Z,7.70
2019-02-05T10:20:37.377Z,7.70
2019-02-05T10:23:07.545Z,8.30
2019-02-05T10:25:37.027Z,7.70
2019-02-05T10:28:06.476Z,7.70
2019-02-05T10:30:45.930Z,7.70
2019-02-05T10:33:14.890Z,7.70
2019-02-05T10:35:44.327Z,7.70
2019-02-05T10:38:14.115Z,7.70
2019-02-05T10:40:43.048Z,7.70
2019-02-05T10:43:12.073Z,7.70
2019-02-05T10:45:40.932Z,7.70
2019-02-05T10:48:10.800Z,7.80
2019-02-05T10:50:39.880Z,7.80
2019-02-05T10:53:08.817Z,7.80
2019-02-05T10:55:37.773Z,7.80
2019-02-05T10:58:07.583Z,7.80
2019-02-05T11:00:36.646Z,7.80
2019-02-05T11:03:07.116Z,7.90
2019-02-05T11:05:36.307Z,7.90
2019-02-05T11:08:05.775Z,7.90
2019-02-05T11:10:34.852Z,7.90
2019-02-05T11:13:04.118Z,7.90
2019-02-05T11:15:33.380Z,7.90
2019-02-05T11:18:02.681Z,7.90
2019-02-05T11:20:31.900Z,7.90
2019-02-05T11:23:00.893Z,7.90
2019-02-05T11:25:29.882Z,7.90
2019-02-05T11:27:58.968Z,7.90
2019-02-05T11:30:39.476Z,7.90
2019-02-05T11:33:08.635Z,8.00
2019-02-05T11:35:37.719Z,8.00
2019-02-05T11:38:07.711Z,8.00
2019-02-05T11:40:36.962Z,8.00
2019-02-05T11:43:06.067Z,8.00
2019-02-05T11:45:35.204Z,8.00
2019-02-05T11:48:06.521Z,8.00
2019-02-05T11:50:35.690Z,8.10
2019-02-05T11:53:04.705Z,8.10
2019-02-05T11:55:33.628Z,8.10
2019-02-05T11:58:02.555Z,8.10
2019-02-05T12:00:34.966Z,8.10
2019-02-05T12:03:04.956Z,8.10
2019-02-05T12:05:34.252Z,8.20
2019-02-05T12:08:04.739Z,8.20
2019-02-05T12:10:33.703Z,8.20
2019-02-05T12:13:02.487Z,8.20
2019-02-05T12:15:31.579Z,8.20
2019-02-05T12:18:00.523Z,8.30
2019-02-05T12:20:29.475Z,8.30
2019-02-05T12:22:58.812Z,8.30
2019-02-05T12:25:27.804Z,8.30
2019-02-05T12:27:56.730Z,8.30
2019-02-05T12:30:28.491Z,8.30
2019-02-05T12:32:57.464Z,8.40
2019-02-05T12:35:26.296Z,8.40
2019-02-05T12:37:55.291Z,8.40
2019-02-05T12:40:24.440Z,8.40
2019-02-05T12:42:53.228Z,8.50
2019-02-05T12:45:24.419Z,8.50
2019-02-05T12:47:53.355Z,8.50
2019-02-05T12:50:24.524Z,8.60
2019-02-05T12:52:53.922Z,8.60
2019-02-05T12:55:23.318Z,8.60
2019-02-05T12:57:52.231Z,8.60
2019-02-05T13:00:55.895Z,8.60
2019-02-05T13:03:15.642Z,8.60
2019-02-05T13:05:45.103Z,8.60
2019-02-05T13:08:14.007Z,8.60
2019-02-05T13:10:44.935Z,8.60
2019-02-05T13:13:14.161Z,8.70
2019-02-05T13:15:43.129Z,8.70
2019-02-05T13:18:12.039Z,8.70
2019-02-05T13:20:41.247Z,8.70
2019-02-05T13:23:10.726Z,8.70
2019-02-05T13:25:39.939Z,8.70
2019-02-05T13:28:10.759Z,8.70
2019-02-05T13:30:39.801Z,8.70
2019-02-05T13:33:08.883Z,8.70
2019-02-05T13:35:39.303Z,8.80
2019-02-05T13:38:08.449Z,8.70
2019-02-05T13:40:37.537Z,8.80
2019-02-05T13:43:07.049Z,8.80
2019-02-05T13:45:37.821Z,8.80
2019-02-05T13:48:07.299Z,8.80
2019-02-05T13:50:36.391Z,8.80
2019-02-05T13:53:05.840Z,8.80
2019-02-05T13:55:37.676Z,8.80
2019-02-05T13:58:06.835Z,8.80
2019-02-05T14:00:53.079Z,8.80
2019-02-05T14:03:22.642Z,8.90
2019-02-05T14:05:51.639Z,8.90
2019-02-05T14:08:20.518Z,8.90
2019-02-05T14:10:49.939Z,8.90
2019-02-05T14:13:19.075Z,8.90
2019-02-05T14:15:52.992Z,8.90
2019-02-05T14:18:22.933Z,8.90
2019-02-05T14:20:52.253Z,8.90
2019-02-05T14:23:21.142Z,8.90
2019-02-05T14:25:50.173Z,8.90
2019-02-05T14:28:19.093Z,8.90
2019-02-05T14:30:51.054Z,8.90
2019-02-05T14:33:20.080Z,8.90
2019-02-05T14:35:49.030Z,8.90
2019-02-05T14:38:17.944Z,9.00
2019-02-05T14:40:46.796Z,9.00
2019-02-05T14:43:15.798Z,9.00
2019-02-05T14:45:44.835Z,9.00
2019-02-05T14:48:13.680Z,9.00
2019-02-05T14:50:43.346Z,9.00
2019-02-05T14:53:12.754Z,9.00
2019-02-05T14:55:41.655Z,9.00
2019-02-05T14:58:11.903Z,9.00
2019-02-05T15:00:41.113Z,9.00
2019-02-05T15:03:11.374Z,9.00
2019-02-05T15:05:41.129Z,9.00
2019-02-05T15:08:11.208Z,9.00
2019-02-05T15:10:40.227Z,9.00
2019-02-05T15:13:09.321Z,9.00
2019-02-05T15:15:38.579Z,9.00
2019-02-05T15:18:09.692Z,9.00
2019-02-05T15:20:46.441Z,9.00
2019-02-05T15:23:15.412Z,9.10
2019-02-05T15:25:44.401Z,9.10
2019-02-05T15:28:13.607Z,9.10
2019-02-05T15:30:43.843Z,9.10
2019-02-05T15:33:51.443Z,9.10
2019-02-05T15:36:39.465Z,9.10
2019-02-05T15:39:15.531Z,9.10
2019-02-05T15:41:44.546Z,9.10
2019-02-05T15:44:13.954Z,9.10
2019-02-05T15:46:42.805Z,9.10
2019-02-05T15:49:12.057Z,9.10
2019-02-05T15:51:40.972Z,9.10
2019-02-05T15:54:09.946Z,9.10
2019-02-05T15:56:38.827Z,9.10
2019-02-05T15:59:08.163Z,9.10
2019-02-05T16:01:37.062Z,9.10
2019-02-05T16:04:06.111Z,9.10
2019-02-05T16:06:34.972Z,9.10
2019-02-05T16:09:05.708Z,9.10
2019-02-05T16:11:34.639Z,9.10
2019-02-05T16:14:03.503Z,9.10
2019-02-05T16:16:32.473Z,9.10
2019-02-05T16:19:01.352Z,9.10
2019-02-05T16:21:30.188Z,9.10
2019-02-05T16:23:59.053Z,9.10
2019-02-05T16:26:27.812Z,9.10
2019-02-05T16:28:56.671Z,9.10
2019-02-05T16:31:27.874Z,9.10
2019-02-05T16:33:56.462Z,9.10
2019-02-05T16:36:25.428Z,9.10
2019-02-05T16:38:54.361Z,9.10
2019-02-05T16:41:23.135Z,9.00
2019-02-05T16:43:51.925Z,9.00
2019-02-05T16:46:21.156Z,9.00
2019-02-05T16:48:49.983Z,9.10
2019-02-05T16:51:18.777Z,9.10
2019-02-05T16:53:47.768Z,9.10
2019-02-05T16:56:18.504Z,9.10
2019-02-05T16:58:47.343Z,9.10
2019-02-05T17:01:16.527Z,9.10
2019-02-05T17:03:45.308Z,9.10
2019-02-05T17:06:14.136Z,9.10
2019-02-05T17:08:43.032Z,9.00
2019-02-05T17:11:11.815Z,9.00
2019-02-05T17:13:40.679Z,9.00
2019-02-05T17:16:09.453Z,9.00
2019-02-05T17:18:38.411Z,9.00
2019-02-05T17:21:07.336Z,9.00
2019-02-05T17:23:36.133Z,9.00
2019-02-05T17:26:05.360Z,9.00
2019-02-05T17:28:34.119Z,9.00
2019-02-05T17:31:02.963Z,8.90
2019-02-05T17:33:31.821Z,8.90
2019-02-05T17:36:00.611Z,8.90
2019-02-05T17:38:29.535Z,8.90
2019-02-05T17:40:58.483Z,8.90
2019-02-05T17:43:27.255Z,8.90
2019-02-05T17:45:56.115Z,8.90
2019-02-05T17:48:25.347Z,8.90
2019-02-05T17:50:54.135Z,8.90
2019-02-05T17:53:22.912Z,8.90
2019-02-05T17:55:51.860Z,8.90
2019-02-05T17:58:20.639Z,8.90
2019-02-05T18:00:51.915Z,8.90
2019-02-05T18:03:21.138Z,8.90
2019-02-05T18:05:49.995Z,8.90
2019-02-05T18:08:18.791Z,8.90
2019-02-05T18:10:47.645Z,8.90
2019-02-05T18:13:16.576Z,8.90
2019-02-05T18:15:45.363Z,8.90
2019-02-05T18:18:14.604Z,8.90
2019-02-05T18:20:43.912Z,8.90
2019-02-05T18:23:13.014Z,8.90
2019-02-05T18:25:42.095Z,8.90
2019-02-05T18:28:11.028Z,8.90
2019-02-05T18:30:40.131Z,8.90
2019-02-05T18:33:09.151Z,8.90
2019-02-05T18:35:38.071Z,8.90
2019-02-05T18:38:08.648Z,8.90
2019-02-05T18:40:37.795Z,8.90
2019-02-05T18:43:06.615Z,8.90
2019-02-05T18:45:35.404Z,8.90
2019-02-05T18:48:04.692Z,8.90
2019-02-05T18:50:33.587Z,8.90
2019-02-05T18:53:02.584Z,8.90
2019-02-05T18:55:31.977Z,8.90
2019-02-05T18:58:08.879Z,8.90
2019-02-05T19:00:33.774Z,8.90
2019-02-05T19:03:14.530Z,8.90
2019-02-05T19:05:33.479Z,8.90
2019-02-05T19:08:02.616Z,8.90
2019-02-05T19:10:32.407Z,8.80
2019-02-05T19:13:01.383Z,8.80
2019-02-05T19:15:32.188Z,8.80
2019-02-05T19:18:01.407Z,8.80
2019-02-05T19:20:31.568Z,8.80
2019-02-05T19:23:01.155Z,8.70
2019-02-05T19:25:44.519Z,8.70
2019-02-05T19:28:20.715Z,8.70
2019-02-05T19:30:50.149Z,8.70
2019-02-05T19:33:26.682Z,8.70
2019-02-05T19:35:50.892Z,8.60
2019-02-05T19:38:19.810Z,8.60
2019-02-05T19:40:57.701Z,8.60
2019-02-05T19:43:23.335Z,8.60
2019-02-05T19:46:02.624Z,8.60
2019-02-05T19:48:42.874Z,8.60
2019-02-05T19:51:12.071Z,8.60
2019-02-05T19:53:40.847Z,8.60
2019-02-05T19:56:10.359Z,8.60
2019-02-05T19:58:45.322Z,8.50
2019-02-05T20:01:14.375Z,8.50
2019-02-05T20:03:49.320Z,8.50
2019-02-05T20:06:19.031Z,8.50
2019-02-05T20:08:47.783Z,8.50
2019-02-05T20:11:19.563Z,8.50
2019-02-05T20:13:48.659Z,8.50
2019-02-05T20:16:20.660Z,8.40
2019-02-05T20:18:49.511Z,8.40
2019-02-05T20:21:26.194Z,8.40
2019-02-05T20:23:55.191Z,8.40
2019-02-05T20:26:24.021Z,8.40
2019-02-05T20:28:52.951Z,8.40
2019-02-05T20:31:21.813Z,8.40
2019-02-05T20:33:50.658Z,8.30
2019-02-05T20:36:19.665Z,8.30
2019-02-05T20:38:48.590Z,8.30
2019-02-05T20:41:20.586Z,8.30
2019-02-05T20:43:49.476Z,8.30
2019-02-05T20:46:18.303Z,8.30
2019-02-05T20:48:47.208Z,8.30
2019-02-05T20:51:16.053Z,8.20
2019-02-05T20:53:44.867Z,8.20
2019-02-05T20:56:15.356Z,8.20
2019-02-05T20:58:44.501Z,8.20
2019-02-05T21:01:13.715Z,8.20
2019-02-05T21:03:42.624Z,8.20
2019-02-05T21:06:11.724Z,8.20
2019-02-05T21:08:40.725Z,8.20
2019-02-05T21:11:09.759Z,8.10
2019-02-05T21:13:38.639Z,8.10
2019-02-05T21:16:07.842Z,8.10
2019-02-05T21:18:36.765Z,8.10
2019-02-05T21:21:05.783Z,8.10
2019-02-05T21:23:34.685Z,8.10
2019-02-05T21:26:05.174Z,8.10
2019-02-05T21:28:34.034Z,8.10
2019-02-05T21:31:03.435Z,8.10
2019-02-05T21:33:32.204Z,8.10
2019-02-05T21:36:01.110Z,8.10
2019-02-05T21:38:29.930Z,8.10
2019-02-05T21:40:59.215Z,8.10
2019-02-05T21:43:28.145Z,8.00
2019-02-05T21:45:57.015Z,8.00
2019-02-05T21:48:25.861Z,8.00
2019-02-05T21:50:54.727Z,8.00
2019-02-05T21:53:23.571Z,8.00
2019-02-05T21:55:53.690Z,8.00
2019-02-05T21:58:22.575Z,7.90
2019-02-05T22:00:51.541Z,7.90
2019-02-05T22:03:20.446Z,7.90
2019-02-05T22:05:49.279Z,7.90
2019-02-05T22:08:21.582Z,7.80
2019-02-05T22:10:50.487Z,7.80
2019-02-05T22:13:19.379Z,7.80
2019-02-05T22:15:48.211Z,7.80
2019-02-05T22:18:17.235Z,7.70
2019-02-05T22:20:46.009Z,7.70
2019-02-05T22:23:15.337Z,7.70
2019-02-05T22:25:44.171Z,7.70
2019-02-05T22:28:13.286Z,7.70
2019-02-05T22:30:42.227Z,7.70
2019-02-05T22:33:11.092Z,7.60
2019-02-05T22:35:39.971Z,7.60
2019-02-05T22:38:09.046Z,7.60
2019-02-05T22:40:37.943Z,7.60
2019-02-05T22:43:07.262Z,7.60
2019-02-05T22:45:36.114Z,7.60
2019-02-05T22:48:06.976Z,7.50
2019-02-05T22:50:35.959Z,7.50
2019-02-05T22:53:05.196Z,7.50
2019-02-05T22:55:34.121Z,7.50
2019-02-05T22:58:03.275Z,7.40
2019-02-05T23:00:48.218Z,7.40
2019-02-05T23:03:20.295Z,7.40
2019-02-05T23:06:11.905Z,6.60
2019-02-05T23:08:41.022Z,7.40
2019-02-05T23:11:45.598Z,7.30
2019-02-05T23:14:14.619Z,7.30
2019-02-05T23:16:43.564Z,7.30
2019-02-05T23:19:12.536Z,7.30
2019-02-05T23:21:41.587Z,7.30
2019-02-05T23:24:10.461Z,7.30
2019-02-05T23:26:39.664Z,7.20
2019-02-05T23:29:08.594Z,7.20
2019-02-05T23:31:37.401Z,7.20
2019-02-05T23:34:06.133Z,7.20
2019-02-05T23:36:35.441Z,7.20
2019-02-05T23:39:10.067Z,7.20
2019-02-05T23:41:38.813Z,7.20
2019-02-05T23:44:09.550Z,7.20
2019-02-05T23:46:38.635Z,7.20
2019-02-05T23:49:07.733Z,7.20
2019-02-05T23:51:37.252Z,7.20
2019-02-05T23:54:06.427Z,7.20
2019-02-05T23:56:35.207Z,7.20
2019-02-05T23:59:04.513Z,7.10
